sensor_id;sensor_type;location;lat;lon;timestamp;pressure;altitude;pressure_sealevel;temperature;humidity
21588;BME280;10956;48.878;13.316;2023-04-01T00:00:51;92838.72;;;6.63;100.00
21588;BME280;10956;48.878;13.316;2023-04-01T00:03:17;92848.47;;;6.58;100.00
21588;BME280;10956;48.878;13.316;2023-04-01T00:05:43;92840.91;;;6.51;100.00
21588;BME280;10956;48.878;13.316;2023-04-01T00:08:08;92836.22;;;6.48;100.00
21588;BME280;10956;48.878;13.316;2023-04-01T00:10:34;92836.16;;;6.58;100.00
21588;BME280;10956;48.878;13.316;2023-04-01T00:12:59;92831.00;;;6.48;100.00
21588;BME280;10956;48.878;13.316;2023-04-01T00:15:25;92830.38;;;6.61;100.00
21588;BME280;10956;48.878;13.316;2023-04-01T00:17:51;92836.63;;;6.65;100.00
21588;BME280;10956;48.878;13.316;2023-04-01T00:20:16;92832.72;;;6.63;100.00
21588;BME280;10956;48.878;13.316;2023-04-01T00:22:43;92835.06;;;6.64;100.00
21588;BME280;10956;48.878;13.316;2023-04-01T00:25:08;92829.34;;;6.57;100.00
21588;BME280;10956;48.878;13.316;2023-04-01T00:27:34;92827.25;;;6.59;100.00
21588;BME280;10956;48.878;13.316;2023-04-01T00:29:59;92830.13;;;6.58;100.00
21588;BME280;10956;48.878;13.316;2023-04-01T00:32:25;92831.97;;;6.57;100.00
21588;BME280;10956;48.878;13.316;2023-04-01T00:34:51;92826.75;;;6.57;100.00
21588;BME280;10956;48.878;13.316;2023-04-01T00:37:18;92827.25;;;6.59;100.00
21588;BME280;10956;48.878;13.316;2023-04-01T00:39:43;92828.88;;;6.50;100.00
21588;BME280;10956;48.878;13.316;2023-04-01T00:42:10;92827.88;;;6.46;100.00
21588;BME280;10956;48.878;13.316;2023-04-01T00:44:37;92818.00;;;6.38;100.00
21588;BME280;10956;48.878;13.316;2023-04-01T00:47:02;92814.28;;;6.44;100.00
21588;BME280;10956;48.878;13.316;2023-04-01T00:49:37;92822.41;;;6.42;100.00
21588;BME280;10956;48.878;13.316;2023-04-01T00:52:06;92820.03;;;6.46;100.00
21588;BME280;10956;48.878;13.316;2023-04-01T00:54:34;92814.81;;;6.41;100.00
21588;BME280;10956;48.878;13.316;2023-04-01T00:57:05;92815.56;;;6.46;100.00
21588;BME280;10956;48.878;13.316;2023-04-01T00:59:35;92818.50;;;6.40;100.00
21588;BME280;10956;48.878;13.316;2023-04-01T01:02:04;92825.84;;;6.38;100.00
21588;BME280;10956;48.878;13.316;2023-04-01T01:04:33;92826.41;;;6.30;100.00
21588;BME280;10956;48.878;13.316;2023-04-01T01:07:19;92814.88;;;6.36;100.00
21588;BME280;10956;48.878;13.316;2023-04-01T01:10:02;92824.88;;;6.24;100.00
21588;BME280;10956;48.878;13.316;2023-04-01T01:15:37;92825.28;;;6.41;100.00
21588;BME280;10956;48.878;13.316;2023-04-01T01:18:15;92831.84;;;6.38;100.00
21588;BME280;10956;48.878;13.316;2023-04-01T01:26:48;92828.66;;;6.46;100.00
21588;BME280;10956;48.878;13.316;2023-04-01T01:29:39;92830.50;;;6.46;100.00
21588;BME280;10956;48.878;13.316;2023-04-01T01:32:19;92822.63;;;6.46;100.00
21588;BME280;10956;48.878;13.316;2023-04-01T01:35:16;92817.38;;;6.51;100.00
21588;BME280;10956;48.878;13.316;2023-04-01T01:37:46;92822.31;;;6.53;100.00
21588;BME280;10956;48.878;13.316;2023-04-01T01:40:12;92813.78;;;6.42;100.00
21588;BME280;10956;48.878;13.316;2023-04-01T01:42:42;92821.13;;;6.40;100.00
21588;BME280;10956;48.878;13.316;2023-04-01T01:45:10;92826.38;;;6.35;100.00
21588;BME280;10956;48.878;13.316;2023-04-01T01:47:37;92821.94;;;6.35;100.00
21588;BME280;10956;48.878;13.316;2023-04-01T01:50:05;92830.59;;;6.31;100.00
21588;BME280;10956;48.878;13.316;2023-04-01T01:52:31;92822.16;;;6.39;100.00
21588;BME280;10956;48.878;13.316;2023-04-01T01:54:58;92834.19;;;6.40;100.00
21588;BME280;10956;48.878;13.316;2023-04-01T01:57:26;92831.63;;;6.35;100.00
21588;BME280;10956;48.878;13.316;2023-04-01T01:59:59;92828.00;;;6.26;100.00
21588;BME280;10956;48.878;13.316;2023-04-01T02:02:26;92831.13;;;6.28;100.00
21588;BME280;10956;48.878;13.316;2023-04-01T02:04:56;92826.69;;;6.28;100.00
21588;BME280;10956;48.878;13.316;2023-04-01T02:07:30;92835.28;;;6.34;100.00
21588;BME280;10956;48.878;13.316;2023-04-01T02:09:57;92832.13;;;6.37;100.00
21588;BME280;10956;48.878;13.316;2023-04-01T02:12:23;92828.50;;;6.33;100.00
21588;BME280;10956;48.878;13.316;2023-04-01T02:14:53;92836.78;;;6.45;100.00
21588;BME280;10956;48.878;13.316;2023-04-01T02:17:24;92837.31;;;6.42;100.00
21588;BME280;10956;48.878;13.316;2023-04-01T02:19:54;92832.88;;;6.42;100.00
21588;BME280;10956;48.878;13.316;2023-04-01T02:22:24;92834.75;;;6.37;100.00
21588;BME280;10956;48.878;13.316;2023-04-01T02:24:53;92834.13;;;6.11;100.00
21588;BME280;10956;48.878;13.316;2023-04-01T02:27:20;92839.06;;;6.12;100.00
21588;BME280;10956;48.878;13.316;2023-04-01T02:29:46;92838.47;;;6.26;100.00
21588;BME280;10956;48.878;13.316;2023-04-01T02:32:12;92834.81;;;6.27;100.00
21588;BME280;10956;48.878;13.316;2023-04-01T02:34:39;92841.13;;;6.21;100.00
21588;BME280;10956;48.878;13.316;2023-04-01T02:37:06;92836.47;;;6.12;100.00
21588;BME280;10956;48.878;13.316;2023-04-01T02:39:31;92834.88;;;6.17;100.00
21588;BME280;10956;48.878;13.316;2023-04-01T02:41:57;92836.16;;;6.19;100.00
21588;BME280;10956;48.878;13.316;2023-04-01T02:44:22;92834.88;;;6.17;100.00
21588;BME280;10956;48.878;13.316;2023-04-01T02:46:48;92831.22;;;6.18;100.00
21588;BME280;10956;48.878;13.316;2023-04-01T02:49:13;92835.34;;;6.24;100.00
21588;BME280;10956;48.878;13.316;2023-04-01T02:51:38;92841.59;;;6.28;100.00
21588;BME280;10956;48.878;13.316;2023-04-01T02:54:04;92844.72;;;6.30;100.00
21588;BME280;10956;48.878;13.316;2023-04-01T02:56:29;92837.22;;;6.18;100.00
21588;BME280;10956;48.878;13.316;2023-04-01T02:58:55;92842.75;;;6.11;100.00
21588;BME280;10956;48.878;13.316;2023-04-01T03:01:21;92828.63;;;6.12;100.00
21588;BME280;10956;48.878;13.316;2023-04-01T03:03:47;92837.53;;;6.06;100.00
21588;BME280;10956;48.878;13.316;2023-04-01T03:06:13;92838.13;;;5.98;100.00
21588;BME280;10956;48.878;13.316;2023-04-01T03:08:40;92848.03;;;6.01;100.00
21588;BME280;10956;48.878;13.316;2023-04-01T03:11:05;92838.13;;;5.98;100.00
21588;BME280;10956;48.878;13.316;2023-04-01T03:13:31;92852.19;;;6.07;100.00
21588;BME280;10956;48.878;13.316;2023-04-01T03:15:57;92851.09;;;6.13;100.00
21588;BME280;10956;48.878;13.316;2023-04-01T03:18:23;92849.00;;;6.15;100.00
21588;BME280;10956;48.878;13.316;2023-04-01T03:20:48;92849.53;;;6.12;100.00
21588;BME280;10956;48.878;13.316;2023-04-01T03:23:14;92855.78;;;6.17;100.00
21588;BME280;10956;48.878;13.316;2023-04-01T03:25:41;92854.97;;;6.21;100.00
21588;BME280;10956;48.878;13.316;2023-04-01T03:28:06;92859.16;;;6.22;100.00
21588;BME280;10956;48.878;13.316;2023-04-01T03:30:32;92860.47;;;6.20;100.00
21588;BME280;10956;48.878;13.316;2023-04-01T03:32:58;92857.34;;;6.18;100.00
21588;BME280;10956;48.878;13.316;2023-04-01T03:35:25;92850.56;;;6.17;100.00
21588;BME280;10956;48.878;13.316;2023-04-01T03:37:52;92866.00;;;6.18;100.00
21588;BME280;10956;48.878;13.316;2023-04-01T03:40:18;92865.97;;;6.23;100.00
21588;BME280;10956;48.878;13.316;2023-04-01T03:42:44;92867.28;;;6.21;100.00
21588;BME280;10956;48.878;13.316;2023-04-01T03:45:10;92864.63;;;6.26;100.00
21588;BME280;10956;48.878;13.316;2023-04-01T03:47:37;92858.66;;;6.20;100.00
21588;BME280;10956;48.878;13.316;2023-04-01T03:50:03;92860.97;;;6.27;100.00
21588;BME280;10956;48.878;13.316;2023-04-01T03:52:28;92868.84;;;6.22;100.00
21588;BME280;10956;48.878;13.316;2023-04-01T03:54:55;92857.84;;;6.25;100.00
21588;BME280;10956;48.878;13.316;2023-04-01T03:57:20;92864.16;;;6.19;100.00
21588;BME280;10956;48.878;13.316;2023-04-01T03:59:46;92864.94;;;6.19;100.00
21588;BME280;10956;48.878;13.316;2023-04-01T04:02:11;92877.78;;;6.10;100.00
21588;BME280;10956;48.878;13.316;2023-04-01T04:04:36;92874.13;;;6.11;100.00
21588;BME280;10956;48.878;13.316;2023-04-01T04:07:02;92873.56;;;6.20;100.00
21588;BME280;10956;48.878;13.316;2023-04-01T04:09:30;92876.19;;;6.20;100.00
21588;BME280;10956;48.878;13.316;2023-04-01T04:11:55;92880.91;;;6.18;100.00
21588;BME280;10956;48.878;13.316;2023-04-01T04:14:22;92869.94;;;6.15;100.00
21588;BME280;10956;48.878;13.316;2023-04-01T04:16:47;92875.50;;;5.99;100.00
21588;BME280;10956;48.878;13.316;2023-04-01T04:19:13;92874.44;;;6.00;100.00
21588;BME280;10956;48.878;13.316;2023-04-01T04:21:39;92880.97;;;6.02;100.00
21588;BME280;10956;48.878;13.316;2023-04-01T04:24:05;92880.13;;;6.12;100.00
21588;BME280;10956;48.878;13.316;2023-04-01T04:26:31;92871.00;;;6.09;100.00
21588;BME280;10956;48.878;13.316;2023-04-01T04:28:56;92874.13;;;6.11;100.00
21588;BME280;10956;48.878;13.316;2023-04-01T04:31:23;92879.63;;;6.10;100.00
21588;BME280;10956;48.878;13.316;2023-04-01T04:33:48;92874.66;;;6.13;100.00
21588;BME280;10956;48.878;13.316;2023-04-01T04:36:14;92872.81;;;6.14;100.00
21588;BME280;10956;48.878;13.316;2023-04-01T04:38:40;92887.78;;;6.03;100.00
21588;BME280;10956;48.878;13.316;2023-04-01T04:41:10;92900.88;;;5.93;100.00
21588;BME280;10956;48.878;13.316;2023-04-01T04:43:37;92890.13;;;6.05;100.00
21588;BME280;10956;48.878;13.316;2023-04-01T04:46:10;92893.03;;;5.93;100.00
21588;BME280;10956;48.878;13.316;2023-04-01T04:48:36;92895.63;;;5.98;100.00
21588;BME280;10956;48.878;13.316;2023-04-01T04:51:01;92890.41;;;5.98;100.00
21588;BME280;10956;48.878;13.316;2023-04-01T04:53:27;92885.72;;;5.95;100.00
21588;BME280;10956;48.878;13.316;2023-04-01T04:55:53;92900.31;;;6.01;100.00
21588;BME280;10956;48.878;13.316;2023-04-01T04:58:18;92896.13;;;6.05;100.00
21588;BME280;10956;48.878;13.316;2023-04-01T05:00:44;92902.38;;;6.09;100.00
21588;BME280;10956;48.878;13.316;2023-04-01T05:03:11;92895.59;;;6.08;100.00
21588;BME280;10956;48.878;13.316;2023-04-01T05:05:37;92894.56;;;6.04;100.00
21588;BME280;10956;48.878;13.316;2023-04-01T05:08:03;92902.38;;;6.09;100.00
21588;BME280;10956;48.878;13.316;2023-04-01T05:10:29;92898.75;;;6.00;100.00
21588;BME280;10956;48.878;13.316;2023-04-01T05:12:54;92910.00;;;6.01;100.00
21588;BME280;10956;48.878;13.316;2023-04-01T05:15:20;92906.09;;;5.98;100.00
21588;BME280;10956;48.878;13.316;2023-04-01T05:17:46;92907.66;;;5.99;100.00
21588;BME280;10956;48.878;13.316;2023-04-01T05:20:13;92913.91;;;6.03;100.00
21588;BME280;10956;48.878;13.316;2023-04-01T05:22:39;92921.75;;;6.08;100.00
21588;BME280;10956;48.878;13.316;2023-04-01T05:25:05;92918.31;;;6.13;100.00
21588;BME280;10956;48.878;13.316;2023-04-01T05:27:30;92919.09;;;6.13;100.00
21588;BME280;10956;48.878;13.316;2023-04-01T05:29:57;92924.31;;;6.19;100.00
21588;BME280;10956;48.878;13.316;2023-04-01T05:32:22;92923.56;;;6.13;100.00
21588;BME280;10956;48.878;13.316;2023-04-01T05:34:53;92920.09;;;6.23;100.00
21588;BME280;10956;48.878;13.316;2023-04-01T05:37:19;92919.63;;;6.15;100.00
21588;BME280;10956;48.878;13.316;2023-04-01T05:39:44;92921.69;;;6.19;100.00
21588;BME280;10956;48.878;13.316;2023-04-01T05:42:10;92922.72;;;6.23;100.00
21588;BME280;10956;48.878;13.316;2023-04-01T05:44:35;92921.94;;;6.22;100.00
21588;BME280;10956;48.878;13.316;2023-04-01T05:47:02;92926.09;;;6.28;100.00
21588;BME280;10956;48.878;13.316;2023-04-01T05:49:27;92925.84;;;6.25;100.00
21588;BME280;10956;48.878;13.316;2023-04-01T05:51:53;92927.75;;;6.09;100.00
21588;BME280;10956;48.878;13.316;2023-04-01T05:54:19;92934.06;;;6.03;100.00
21588;BME280;10956;48.878;13.316;2023-04-01T05:56:45;92929.59;;;6.03;100.00
21588;BME280;10956;48.878;13.316;2023-04-01T05:59:11;92931.72;;;5.96;100.00
21588;BME280;10956;48.878;13.316;2023-04-01T06:01:37;92943.97;;;6.06;100.00
21588;BME280;10956;48.878;13.316;2023-04-01T06:04:02;92944.31;;;5.89;100.00
21588;BME280;10956;48.878;13.316;2023-04-01T06:06:29;92933.84;;;5.89;100.00
21588;BME280;10956;48.878;13.316;2023-04-01T06:08:58;92924.91;;;6.00;100.00
21588;BME280;10956;48.878;13.316;2023-04-01T06:14:31;92929.66;;;5.83;100.00
21588;BME280;10956;48.878;13.316;2023-04-01T06:19:50;92930.97;;;5.91;100.00
21588;BME280;10956;48.878;13.316;2023-04-01T06:36:46;92944.75;;;6.06;100.00
21588;BME280;10956;48.878;13.316;2023-04-01T06:50:20;92942.97;;;6.51;100.00
21588;BME280;10956;48.878;13.316;2023-04-01T06:55:52;92939.63;;;6.85;100.00
21588;BME280;10956;48.878;13.316;2023-04-01T06:58:29;92934.81;;;7.31;100.00
21588;BME280;10956;48.878;13.316;2023-04-01T07:01:02;92944.78;;;7.58;100.00
21588;BME280;10956;48.878;13.316;2023-04-01T07:06:02;92927.91;;;7.69;100.00
21588;BME280;10956;48.878;13.316;2023-04-01T07:08:29;92931.03;;;7.71;100.00
21588;BME280;10956;48.878;13.316;2023-04-01T07:11:02;92934.16;;;7.97;100.00
21588;BME280;10956;48.878;13.316;2023-04-01T07:13:41;92917.66;;;8.39;100.00
21588;BME280;10956;48.878;13.316;2023-04-01T07:16:19;92920.66;;;8.51;100.00
21588;BME280;10956;48.878;13.316;2023-04-01T07:19:02;92933.63;;;8.61;100.00
21588;BME280;10956;48.878;13.316;2023-04-01T07:21:54;92929.59;;;8.69;100.00
21588;BME280;10956;48.878;13.316;2023-04-01T07:26:52;92938.31;;;8.64;100.00
21588;BME280;10956;48.878;13.316;2023-04-01T07:29:18;92935.25;;;8.38;100.00
21588;BME280;10956;48.878;13.316;2023-04-01T07:31:54;92946.13;;;8.27;100.00
21588;BME280;10956;48.878;13.316;2023-04-01T07:34:39;92943.47;;;8.08;100.00
21588;BME280;10956;48.878;13.316;2023-04-01T07:37:14;92944.63;;;8.21;100.00
21588;BME280;10956;48.878;13.316;2023-04-01T07:42:24;92965.63;;;8.45;100.00
21588;BME280;10956;48.878;13.316;2023-04-01T07:47:25;92952.91;;;8.33;100.00
21588;BME280;10956;48.878;13.316;2023-04-01T07:50:22;92960.38;;;8.21;100.00
21588;BME280;10956;48.878;13.316;2023-04-01T07:53:03;92964.63;;;8.17;100.00
21588;BME280;10956;48.878;13.316;2023-04-01T08:01:00;92961.31;;;8.30;100.00
21588;BME280;10956;48.878;13.316;2023-04-01T08:03:47;92963.16;;;8.53;100.00
21588;BME280;10956;48.878;13.316;2023-04-01T08:09:05;92965.22;;;8.56;100.00
21588;BME280;10956;48.878;13.316;2023-04-01T08:12:07;92960.97;;;8.79;100.00
21588;BME280;10956;48.878;13.316;2023-04-01T08:20:17;92964.03;;;8.86;100.00
21588;BME280;10956;48.878;13.316;2023-04-01T08:23:11;92958.34;;;8.98;100.00
21588;BME280;10956;48.878;13.316;2023-04-01T08:25:50;92964.00;;;9.05;100.00
21588;BME280;10956;48.878;13.316;2023-04-01T08:28:23;92963.06;;;9.15;100.00
21588;BME280;10956;48.878;13.316;2023-04-01T08:30:53;92960.13;;;9.67;100.00
21588;BME280;10956;48.878;13.316;2023-04-01T08:33:27;92965.81;;;10.16;100.00
21588;BME280;10956;48.878;13.316;2023-04-01T08:38:43;92964.84;;;10.12;100.00
21588;BME280;10956;48.878;13.316;2023-04-01T08:52:26;92953.97;;;9.26;100.00
21588;BME280;10956;48.878;13.316;2023-04-01T08:55:14;92948.72;;;9.26;100.00
21588;BME280;10956;48.878;13.316;2023-04-01T09:00:38;92967.81;;;9.31;100.00
21588;BME280;10956;48.878;13.316;2023-04-01T09:03:51;92959.09;;;9.50;100.00
21588;BME280;10956;48.878;13.316;2023-04-01T09:06:26;92955.50;;;10.06;100.00
21588;BME280;10956;48.878;13.316;2023-04-01T09:09:13;92952.00;;;10.51;100.00
21588;BME280;10956;48.878;13.316;2023-04-01T09:23:27;92970.88;;;9.98;100.00
21588;BME280;10956;48.878;13.316;2023-04-01T10:00:39;92960.00;;;11.63;100.00
21588;BME280;10956;48.878;13.316;2023-04-01T10:14:24;92957.25;;;11.01;100.00
21588;BME280;10956;48.878;13.316;2023-04-01T10:19:55;92945.13;;;10.78;100.00
21588;BME280;10956;48.878;13.316;2023-04-01T10:56:36;92935.31;;;11.59;100.00
21588;BME280;10956;48.878;13.316;2023-04-01T11:07:27;92932.00;;;12.64;100.00
21588;BME280;10956;48.878;13.316;2023-04-01T11:16:31;92919.81;;;12.28;100.00
21588;BME280;10956;48.878;13.316;2023-04-01T11:22:18;92914.44;;;12.68;100.00
21588;BME280;10956;48.878;13.316;2023-04-01T11:31:23;92921.78;;;12.88;100.00
21588;BME280;10956;48.878;13.316;2023-04-01T11:33:55;92920.69;;;13.06;99.07
21588;BME280;10956;48.878;13.316;2023-04-01T11:39:15;92927.31;;;12.52;100.00
21588;BME280;10956;48.878;13.316;2023-04-01T11:41:59;92931.34;;;12.41;100.00
21588;BME280;10956;48.878;13.316;2023-04-01T11:44:28;92927.78;;;12.45;100.00
21588;BME280;10956;48.878;13.316;2023-04-01T11:47:28;92923.38;;;12.32;99.82
21588;BME280;10956;48.878;13.316;2023-04-01T12:01:44;92930.50;;;11.61;100.00
21588;BME280;10956;48.878;13.316;2023-04-01T12:04:25;92935.13;;;11.78;100.00
21588;BME280;10956;48.878;13.316;2023-04-01T12:23:11;92928.28;;;12.08;100.00
21588;BME280;10956;48.878;13.316;2023-04-01T12:31:03;92927.94;;;12.49;100.00
21588;BME280;10956;48.878;13.316;2023-04-01T12:36:19;92929.13;;;12.25;100.00
21588;BME280;10956;48.878;13.316;2023-04-01T12:47:16;92936.28;;;11.41;100.00
21588;BME280;10956;48.878;13.316;2023-04-01T12:52:12;92922.03;;;10.97;100.00
21588;BME280;10956;48.878;13.316;2023-04-01T13:06:29;92915.06;;;11.01;100.00
21588;BME280;10956;48.878;13.316;2023-04-01T13:17:31;92912.47;;;10.51;100.00
21588;BME280;10956;48.878;13.316;2023-04-01T13:20:19;92912.16;;;10.66;100.00
21588;BME280;10956;48.878;13.316;2023-04-01T13:30:49;92917.28;;;9.94;100.00
21588;BME280;10956;48.878;13.316;2023-04-01T14:00:53;92951.28;;;9.77;100.00
21588;BME280;10956;48.878;13.316;2023-04-01T14:06:31;92936.34;;;9.73;100.00
21588;BME280;10956;48.878;13.316;2023-04-01T14:17:08;92948.97;;;9.43;100.00
21588;BME280;10956;48.878;13.316;2023-04-01T14:19:57;92954.63;;;9.50;100.00
21588;BME280;10956;48.878;13.316;2023-04-01T14:22:46;92952.25;;;9.81;100.00
21588;BME280;10956;48.878;13.316;2023-04-01T14:41:51;92961.88;;;9.07;100.00
21588;BME280;10956;48.878;13.316;2023-04-01T14:44:33;92964.53;;;8.88;100.00
21588;BME280;10956;48.878;13.316;2023-04-01T14:49:49;92957.53;;;8.41;100.00
21588;BME280;10956;48.878;13.316;2023-04-01T14:52:31;92957.53;;;8.41;100.00
21588;BME280;10956;48.878;13.316;2023-04-01T14:55:00;92959.03;;;8.47;100.00
21588;BME280;10956;48.878;13.316;2023-04-01T14:57:28;92971.44;;;8.41;100.00
21588;BME280;10956;48.878;13.316;2023-04-01T15:00:14;92978.03;;;8.39;100.00
21588;BME280;10956;48.878;13.316;2023-04-01T15:05:46;92971.09;;;8.24;100.00
21588;BME280;10956;48.878;13.316;2023-04-01T15:08:19;92966.53;;;8.35;100.00
21588;BME280;10956;48.878;13.316;2023-04-01T15:11:19;92980.72;;;8.34;100.00
21588;BME280;10956;48.878;13.316;2023-04-01T15:13:58;92970.31;;;8.24;100.00
21588;BME280;10956;48.878;13.316;2023-04-01T15:33:50;92973.09;;;8.08;100.00
21588;BME280;10956;48.878;13.316;2023-04-01T15:36:34;92979.25;;;7.99;100.00
21588;BME280;10956;48.878;13.316;2023-04-01T15:47:01;92978.00;;;7.91;100.00
21588;BME280;10956;48.878;13.316;2023-04-01T15:49:55;92983.75;;;7.93;100.00
21588;BME280;10956;48.878;13.316;2023-04-01T15:52:45;92985.94;;;7.86;100.00
21588;BME280;10956;48.878;13.316;2023-04-01T16:00:53;92991.28;;;7.76;100.00
21588;BME280;10956;48.878;13.316;2023-04-01T16:03:40;92995.06;;;7.65;100.00
21588;BME280;10956;48.878;13.316;2023-04-01T16:17:34;92993.03;;;7.57;100.00
21588;BME280;10956;48.878;13.316;2023-04-01T16:23:49;92991.31;;;7.42;100.00
21588;BME280;10956;48.878;13.316;2023-04-01T16:32:03;92998.81;;;7.54;100.00
21588;BME280;10956;48.878;13.316;2023-04-01T16:34:43;93010.59;;;7.56;100.00
21588;BME280;10956;48.878;13.316;2023-04-01T16:37:19;93014.47;;;7.64;100.00
21588;BME280;10956;48.878;13.316;2023-04-01T16:42:46;93017.38;;;7.62;100.00
21588;BME280;10956;48.878;13.316;2023-04-01T16:45:34;93017.59;;;7.66;100.00
21588;BME280;10956;48.878;13.316;2023-04-01T16:48:22;93030.75;;;7.61;100.00
21588;BME280;10956;48.878;13.316;2023-04-01T16:50:59;93027.84;;;7.62;100.00
21588;BME280;10956;48.878;13.316;2023-04-01T16:53:41;93030.00;;;7.55;100.00
21588;BME280;10956;48.878;13.316;2023-04-01T16:56:13;93032.94;;;7.49;100.00
21588;BME280;10956;48.878;13.316;2023-04-01T17:01:20;93027.53;;;7.35;100.00
21588;BME280;10956;48.878;13.316;2023-04-01T17:03:52;93033.31;;;7.32;100.00
21588;BME280;10956;48.878;13.316;2023-04-01T17:10:16;93030.44;;;7.33;100.00
21588;BME280;10956;48.878;13.316;2023-04-01T17:15:42;93040.72;;;7.25;100.00
21588;BME280;10956;48.878;13.316;2023-04-01T17:20:58;93047.00;;;7.24;100.00
21588;BME280;10956;48.878;13.316;2023-04-01T17:23:35;93047.50;;;7.31;100.00
21588;BME280;10956;48.878;13.316;2023-04-01T17:31:55;93058.19;;;7.34;100.00
21588;BME280;10956;48.878;13.316;2023-04-01T17:37:26;93059.81;;;7.30;100.00
21588;BME280;10956;48.878;13.316;2023-04-01T17:57:30;93073.47;;;7.22;100.00
21588;BME280;10956;48.878;13.316;2023-04-01T18:03:08;93078.41;;;7.29;100.00
21588;BME280;10956;48.878;13.316;2023-04-01T18:05:52;93081.81;;;7.29;100.00
21588;BME280;10956;48.878;13.316;2023-04-01T18:16:03;93094.38;;;7.32;100.00
21588;BME280;10956;48.878;13.316;2023-04-01T18:21:47;93092.31;;;7.29;100.00
21588;BME280;10956;48.878;13.316;2023-04-01T18:24:18;93097.53;;;7.29;100.00
21588;BME280;10956;48.878;13.316;2023-04-01T18:26:59;93103.09;;;7.23;100.00
21588;BME280;10956;48.878;13.316;2023-04-01T18:29:33;93102.31;;;7.22;100.00
21588;BME280;10956;48.878;13.316;2023-04-01T18:39:57;93122.47;;;7.22;100.00
21588;BME280;10956;48.878;13.316;2023-04-01T18:46:05;93120.13;;;7.20;100.00
21588;BME280;10956;48.878;13.316;2023-04-01T18:48:52;93115.47;;;7.12;100.00
21588;BME280;10956;48.878;13.316;2023-04-01T18:51:25;93122.25;;;7.18;100.00
21588;BME280;10956;48.878;13.316;2023-04-01T18:53:57;93121.69;;;7.21;100.00
21588;BME280;10956;48.878;13.316;2023-04-01T18:56:41;93129.31;;;7.18;100.00
21588;BME280;10956;48.878;13.316;2023-04-01T18:59:22;93134.34;;;7.09;100.00
21588;BME280;10956;48.878;13.316;2023-04-01T19:04:37;93134.38;;;6.99;100.00
21588;BME280;10956;48.878;13.316;2023-04-01T19:13:19;93143.31;;;6.93;100.00
21588;BME280;10956;48.878;13.316;2023-04-01T19:15:57;93145.44;;;6.86;100.00
21588;BME280;10956;48.878;13.316;2023-04-01T19:26:39;93147.81;;;6.82;100.00
21588;BME280;10956;48.878;13.316;2023-04-01T19:31:53;93148.03;;;6.91;100.00
21588;BME280;10956;48.878;13.316;2023-04-01T19:34:45;93150.63;;;6.96;100.00
21588;BME280;10956;48.878;13.316;2023-04-01T19:37:41;93156.41;;;6.93;100.00
21588;BME280;10956;48.878;13.316;2023-04-01T19:46:17;93152.72;;;6.94;100.00
21588;BME280;10956;48.878;13.316;2023-04-01T19:49:21;93157.44;;;6.97;100.00
21588;BME280;10956;48.878;13.316;2023-04-01T20:04:43;93160.53;;;7.09;100.00
21588;BME280;10956;48.878;13.316;2023-04-01T20:07:20;93163.72;;;7.01;100.00
21588;BME280;10956;48.878;13.316;2023-04-01T20:15:30;93177.81;;;7.10;100.00
21588;BME280;10956;48.878;13.316;2023-04-01T20:17:54;93179.88;;;7.18;100.00
21588;BME280;10956;48.878;13.316;2023-04-01T20:20:26;93174.63;;;7.23;100.00
21588;BME280;10956;48.878;13.316;2023-04-01T20:25:43;93178.81;;;7.24;100.00
21588;BME280;10956;48.878;13.316;2023-04-01T20:28:19;93178.81;;;7.24;100.00
21588;BME280;10956;48.878;13.316;2023-04-01T20:31:12;93172.00;;;7.23;100.00
21588;BME280;10956;48.878;13.316;2023-04-01T20:39:46;93175.66;;;7.27;100.00
21588;BME280;10956;48.878;13.316;2023-04-01T20:42:29;93180.63;;;7.29;100.00
21588;BME280;10956;48.878;13.316;2023-04-01T20:45:17;93183.22;;;7.29;100.00
21588;BME280;10956;48.878;13.316;2023-04-01T20:53:29;93178.84;;;7.14;100.00
21588;BME280;10956;48.878;13.316;2023-04-01T21:02:40;93184.88;;;7.15;100.00
21588;BME280;10956;48.878;13.316;2023-04-01T21:12:24;93182.22;;;7.25;100.00
21588;BME280;10956;48.878;13.316;2023-04-01T21:23:14;93194.78;;;7.28;100.00
21588;BME280;10956;48.878;13.316;2023-04-01T21:28:34;93198.72;;;7.20;100.00
21588;BME280;10956;48.878;13.316;2023-04-01T21:43:17;93203.53;;;6.93;100.00
21588;BME280;10956;48.878;13.316;2023-04-01T21:46:26;93204.34;;;6.88;100.00
21588;BME280;10956;48.878;13.316;2023-04-01T21:54:58;93219.78;;;6.90;100.00
21588;BME280;10956;48.878;13.316;2023-04-01T21:58:13;93221.09;;;6.87;100.00
21588;BME280;10956;48.878;13.316;2023-04-01T22:01:34;93219.53;;;6.91;100.00
21588;BME280;10956;48.878;13.316;2023-04-01T22:04:22;93220.84;;;6.89;100.00
21588;BME280;10956;48.878;13.316;2023-04-01T22:12:17;93230.28;;;6.85;100.00
21588;BME280;10956;48.878;13.316;2023-04-01T22:17:33;93237.09;;;6.86;100.00
21588;BME280;10956;48.878;13.316;2023-04-01T22:28:07;93240.50;;;6.81;100.00
21588;BME280;10956;48.878;13.316;2023-04-01T22:30:58;93229.78;;;6.72;100.00
21588;BME280;10956;48.878;13.316;2023-04-01T22:36:32;93241.81;;;6.73;100.00
21588;BME280;10956;48.878;13.316;2023-04-01T22:44:47;93249.66;;;6.78;100.00
21588;BME280;10956;48.878;13.316;2023-04-01T22:47:53;93247.56;;;6.80;100.00
21588;BME280;10956;48.878;13.316;2023-04-01T22:53:22;93252.78;;;6.86;100.00
21588;BME280;10956;48.878;13.316;2023-04-01T22:55:54;93257.00;;;6.76;100.00
21588;BME280;10956;48.878;13.316;2023-04-01T22:58:33;93261.19;;;6.83;100.00
21588;BME280;10956;48.878;13.316;2023-04-01T23:01:03;93256.47;;;6.85;100.00
21588;BME280;10956;48.878;13.316;2023-04-01T23:03:32;93263.78;;;6.93;100.00
21588;BME280;10956;48.878;13.316;2023-04-01T23:06:03;93256.97;;;6.92;100.00
21588;BME280;10956;48.878;13.316;2023-04-01T23:08:51;93267.97;;;6.94;100.00